createdAt,value
2022-10-10T00:04:34.060Z,8.43
2022-10-10T00:12:09.171Z,8.40
2022-10-10T00:19:42.887Z,8.36
2022-10-10T00:27:18.033Z,8.30
2022-10-10T00:34:51.994Z,8.19
2022-10-10T00:42:27.088Z,8.15
2022-10-10T00:50:00.912Z,8.14
2022-10-10T00:57:35.995Z,8.17
2022-10-10T01:05:10.220Z,8.17
2022-10-10T01:12:58.088Z,7.98
2022-10-10T01:20:49.389Z,7.95
2022-10-10T01:28:40.250Z,7.91
2022-10-10T01:36:22.399Z,7.86
2022-10-10T01:43:59.199Z,7.80
2022-10-10T01:51:51.717Z,7.78
2022-10-10T01:59:43.632Z,7.85
2022-10-10T02:07:22.751Z,7.78
2022-10-10T02:15:05.452Z,7.75
2022-10-10T02:22:42.490Z,7.67
2022-10-10T02:30:19.574Z,7.52
2022-10-10T02:37:55.307Z,7.55
2022-10-10T02:45:33.157Z,7.44
2022-10-10T02:53:06.885Z,7.35
2022-10-10T03:00:42.113Z,7.46
2022-10-10T03:08:15.816Z,7.44
2022-10-10T03:15:51.073Z,7.29
2022-10-10T03:23:26.054Z,7.25
2022-10-10T03:31:01.211Z,7.14
2022-10-10T03:38:35.122Z,7.03
2022-10-10T03:46:15.092Z,6.97
2022-10-10T03:53:49.898Z,6.98
2022-10-10T04:01:24.920Z,6.94
2022-10-10T04:08:58.607Z,6.83
2022-10-10T04:16:33.610Z,6.66
2022-10-10T04:24:07.598Z,6.48
2022-10-10T04:31:42.906Z,6.57
2022-10-10T04:39:16.580Z,6.58
2022-10-10T04:46:51.683Z,6.55
2022-10-10T04:54:25.427Z,6.59
2022-10-10T05:02:01.863Z,6.62
2022-10-10T05:09:36.034Z,6.58
2022-10-10T05:17:11.081Z,6.58
2022-10-10T05:24:44.922Z,6.55
2022-10-10T05:32:20.079Z,6.46
2022-10-10T05:39:54.818Z,6.55
2022-10-10T05:47:29.884Z,6.62
2022-10-10T05:55:03.806Z,6.70
2022-10-10T06:02:39.108Z,6.67
2022-10-10T06:10:12.784Z,6.54
2022-10-10T06:17:47.801Z,6.63
2022-10-10T06:25:38.960Z,6.67
2022-10-10T06:33:18.619Z,6.54
2022-10-10T06:40:52.364Z,6.68
2022-10-10T06:48:27.863Z,6.84
2022-10-10T06:56:01.938Z,6.95
2022-10-10T07:03:37.160Z,6.97
2022-10-10T07:11:11.228Z,7.02
2022-10-10T07:18:46.384Z,7.13
2022-10-10T07:26:22.332Z,7.40
2022-10-10T07:33:57.297Z,7.97
2022-10-10T07:41:30.753Z,8.17
2022-10-10T07:49:05.967Z,8.51
2022-10-10T07:56:39.796Z,8.82
2022-10-10T08:04:14.839Z,9.20
2022-10-10T08:11:48.445Z,9.92
2022-10-10T08:19:23.712Z,10.41
2022-10-10T08:26:57.993Z,11.03
2022-10-10T08:34:33.162Z,11.49
2022-10-10T08:42:07.676Z,12.00
2022-10-10T08:49:48.003Z,12.41
2022-10-10T08:57:26.246Z,12.83
2022-10-10T09:05:01.478Z,13.49
2022-10-10T09:12:46.130Z,13.94
2022-10-10T09:20:36.100Z,14.16
2022-10-10T09:28:30.035Z,14.34
2022-10-10T09:36:11.278Z,14.22
2022-10-10T09:43:45.198Z,14.13
2022-10-10T09:51:21.319Z,13.83
2022-10-10T09:58:56.632Z,13.55
2022-10-10T10:06:31.967Z,13.50
2022-10-10T10:14:05.857Z,13.72
2022-10-10T10:21:52.171Z,13.82
2022-10-10T10:29:30.683Z,13.78
2022-10-10T10:37:15.859Z,14.05
2022-10-10T10:45:00.485Z,14.39
2022-10-10T10:52:50.910Z,14.45
2022-10-10T11:01:22.453Z,14.64
2022-10-10T11:08:50.004Z,14.57
2022-10-10T11:24:33.894Z,14.89
2022-10-10T11:32:13.226Z,15.04
2022-10-10T11:39:56.271Z,15.11
2022-10-10T11:47:36.236Z,15.24
2022-10-10T11:55:19.560Z,15.46
2022-10-10T12:02:53.922Z,15.59
2022-10-10T12:10:33.926Z,15.61
2022-10-10T12:18:07.676Z,15.74
2022-10-10T12:25:45.657Z,15.87
2022-10-10T12:33:21.810Z,15.90
2022-10-10T12:41:14.496Z,16.00
2022-10-10T12:49:00.690Z,16.05
2022-10-10T12:56:42.099Z,16.08
2022-10-10T13:04:17.701Z,16.16
2022-10-10T13:11:59.114Z,16.32
2022-10-10T13:19:33.223Z,16.31
2022-10-10T13:27:18.170Z,16.36
2022-10-10T13:34:57.069Z,16.27
2022-10-10T13:42:37.619Z,16.31
2022-10-10T13:50:19.910Z,16.28
2022-10-10T13:58:00.848Z,16.34
2022-10-10T14:05:35.497Z,16.34
2022-10-10T14:13:19.167Z,16.34
2022-10-10T14:20:55.416Z,16.37
2022-10-10T14:28:32.913Z,16.37
2022-10-10T14:36:07.630Z,16.37
2022-10-10T14:43:45.895Z,16.35
2022-10-10T14:51:34.158Z,16.29
2022-10-10T14:59:18.212Z,16.27
2022-10-10T15:07:14.710Z,16.20
2022-10-10T15:14:50.439Z,16.21
2022-10-10T15:22:23.959Z,16.09
2022-10-10T15:29:59.210Z,16.05
2022-10-10T15:37:32.948Z,15.94
2022-10-10T15:45:09.331Z,15.74
2022-10-10T15:52:43.103Z,15.50
2022-10-10T16:00:19.196Z,15.32
2022-10-10T16:07:53.019Z,15.20
2022-10-10T16:15:28.035Z,15.07
2022-10-10T16:23:01.634Z,14.89
2022-10-10T16:30:36.680Z,14.69
2022-10-10T16:38:10.258Z,14.52
2022-10-10T16:45:46.066Z,14.38
2022-10-10T16:53:32.102Z,14.22
2022-10-10T17:01:10.010Z,14.08
2022-10-10T17:08:44.731Z,13.92
2022-10-10T17:24:17.740Z,13.55
2022-10-10T17:31:55.139Z,13.39
2022-10-10T17:39:29.060Z,13.25
2022-10-10T17:47:04.260Z,13.16
2022-10-10T17:54:38.084Z,13.01
2022-10-10T18:02:16.340Z,12.86
2022-10-10T18:17:53.579Z,12.60
2022-10-10T18:25:27.667Z,12.46
2022-10-10T18:33:02.704Z,12.30
2022-10-10T18:40:36.397Z,12.16
2022-10-10T18:48:11.427Z,12.07
2022-10-10T18:55:44.840Z,11.99
2022-10-10T19:03:20.151Z,11.90
2022-10-10T19:10:54.847Z,11.83
2022-10-10T19:18:29.768Z,11.74
2022-10-10T19:26:05.545Z,11.70
2022-10-10T19:33:41.608Z,11.72
2022-10-10T19:41:15.791Z,11.73
2022-10-10T19:48:51.876Z,11.74
2022-10-10T19:56:27.586Z,11.75
2022-10-10T20:04:02.758Z,11.75
2022-10-10T20:11:36.688Z,11.77
2022-10-10T20:19:11.619Z,11.80
2022-10-10T20:26:45.509Z,11.82
2022-10-10T20:34:20.502Z,11.82
2022-10-10T20:41:53.929Z,11.84
2022-10-10T20:49:28.913Z,12.18
2022-10-10T20:57:02.376Z,12.63
2022-10-10T21:04:37.329Z,13.17
2022-10-10T21:12:10.911Z,13.36
2022-10-10T21:19:45.924Z,13.48
2022-10-10T21:27:19.380Z,13.55
2022-10-10T21:34:56.477Z,13.61
2022-10-10T21:42:30.208Z,13.63
2022-10-10T21:50:06.070Z,13.64
2022-10-10T21:57:41.783Z,13.68
2022-10-10T22:05:17.642Z,13.67
2022-10-10T22:12:51.452Z,13.60
2022-10-10T22:20:26.569Z,13.59
2022-10-10T22:28:03.814Z,13.55
2022-10-10T22:35:41.396Z,13.55
2022-10-10T22:43:15.138Z,13.50
2022-10-10T22:50:59.748Z,13.39
2022-10-10T22:58:33.806Z,13.25
2022-10-10T23:06:09.932Z,13.11
2022-10-10T23:13:43.510Z,12.98
2022-10-10T23:21:18.717Z,12.87
2022-10-10T23:28:52.360Z,12.70
2022-10-10T23:36:27.526Z,12.58
2022-10-10T23:44:01.120Z,12.40
2022-10-10T23:51:36.052Z,12.27
2022-10-10T23:59:09.656Z,12.13
